KBWD/BWD METAR and TAF weather

Enter ICAO airport designator
Station Type Date Time Source
KBWD METAR 2022/06/28 08:15 UTC NOAA

KBWD 280815Z AUTO 09003KT 10SM SCT050 21/20 A3019 RMK AO1


Station Type Date Time Source
KBWD Decoded METAR 2022/06/28 08:15 UTC NOAA

Brownwood, Brownwood Regional Airport, TX, United States (KBWD) 31-48N 098-57W
Jun 28, 2022 - 04:15 AM EDT / 2022.06.28 0815 UTC
Wind: from the E (090 degrees) at 3 MPH (3 KT):0
Visibility: 10 mile(s):0
Sky conditions: partly cloudy
Temperature: 69 F (21 C)
Dew Point: 68 F (20 C)
Relative Humidity: 94%
Pressure (altimeter): 30.19 in. Hg (1022 hPa)
ob: KBWD 280815Z AUTO 09003KT 10SM SCT050 21/20 A3019 RMK AO1
cycle: 8

Station Type Date Time Source
KBWD TAF UTC NOAA

Error!

Example: see airport list